createdAt,value
2019-01-22T00:00:20.066Z,90.96
2019-01-22T00:01:20.054Z,91.05
2019-01-22T00:02:20.017Z,90.77
2019-01-22T00:03:19.990Z,90.68
2019-01-22T00:04:19.965Z,90.49
2019-01-22T00:05:19.941Z,89.83
2019-01-22T00:06:19.914Z,89.83
2019-01-22T00:07:19.890Z,89.92
2019-01-22T00:08:19.867Z,89.73
2019-01-22T00:09:19.844Z,90.01
2019-01-22T00:10:19.818Z,89.26
2019-01-22T00:11:19.792Z,89.64
2019-01-22T00:12:19.767Z,89.17
2019-01-22T00:13:19.748Z,89.73
2019-01-22T00:14:19.715Z,89.73
2019-01-22T00:15:19.692Z,89.73
2019-01-22T00:16:19.666Z,90.01
2019-01-22T00:17:19.639Z,90.49
2019-01-22T00:18:19.614Z,90.68
2019-01-22T00:19:19.589Z,90.49
2019-01-22T00:20:19.563Z,90.77
2019-01-22T00:21:19.539Z,90.49
2019-01-22T00:22:19.514Z,90.01
2019-01-22T00:23:19.498Z,89.83
2019-01-22T00:24:19.463Z,90.01
2019-01-22T00:25:19.439Z,90.58
2019-01-22T00:26:19.416Z,90.49
2019-01-22T00:27:19.393Z,90.86
2019-01-22T00:28:19.364Z,90.96
2019-01-22T00:29:19.344Z,90.77
2019-01-22T00:30:19.313Z,90.77
2019-01-22T00:31:19.292Z,90.01
2019-01-22T00:32:19.265Z,90.20
2019-01-22T00:33:19.247Z,90.01
2019-01-22T00:34:19.214Z,90.11
2019-01-22T00:35:19.195Z,90.01
2019-01-22T00:36:19.170Z,90.01
2019-01-22T00:37:19.144Z,89.92
2019-01-22T00:38:19.121Z,89.73
2019-01-22T00:39:19.093Z,89.07
2019-01-22T00:40:19.066Z,89.17
2019-01-22T00:41:19.040Z,90.01
2019-01-22T00:42:19.016Z,89.97
2019-01-22T00:43:18.993Z,90.68
2019-01-22T00:44:18.965Z,90.11
2019-01-22T00:45:18.940Z,90.86
2019-01-22T00:46:18.920Z,90.73
2019-01-22T00:47:18.896Z,90.82
2019-01-22T00:48:18.865Z,90.82
2019-01-22T00:49:18.849Z,90.82
2019-01-22T00:50:18.815Z,91.39
2019-01-22T00:51:18.790Z,91.58
2019-01-22T00:52:18.765Z,91.39
2019-01-22T00:53:18.738Z,91.39
2019-01-22T00:54:18.713Z,91.10
2019-01-22T00:55:18.693Z,91.29
2019-01-22T00:56:18.660Z,91.20
2019-01-22T00:57:18.639Z,91.20
2019-01-22T00:58:18.618Z,91.01
2019-01-22T00:59:18.585Z,91.39
2019-01-22T01:00:18.559Z,91.20
2019-01-22T01:01:18.534Z,91.39
2019-01-22T01:02:18.519Z,91.86
2019-01-22T01:03:18.484Z,92.33
2019-01-22T01:04:18.459Z,92.90
2019-01-22T01:05:18.441Z,93.18
2019-01-22T01:06:18.410Z,92.90
2019-01-22T01:07:18.382Z,92.71
2019-01-22T01:08:18.363Z,93.84
2019-01-22T01:09:18.331Z,93.47
2019-01-22T01:10:18.306Z,93.28
2019-01-22T01:11:18.284Z,93.75
2019-01-22T01:12:18.268Z,93.18
2019-01-22T01:13:18.228Z,92.43
2019-01-22T01:14:18.204Z,92.19
2019-01-22T01:15:18.184Z,91.67
2019-01-22T01:16:18.154Z,91.48
2019-01-22T01:17:18.126Z,91.39
2019-01-22T01:18:18.107Z,91.20
2019-01-22T01:19:18.078Z,91.10
2019-01-22T01:20:18.051Z,91.96
2019-01-22T01:21:18.029Z,92.05
2019-01-22T01:22:18.002Z,92.61
2019-01-22T01:23:17.976Z,93.18
2019-01-22T01:24:17.956Z,92.90
2019-01-22T01:25:17.921Z,93.66
2019-01-22T01:26:17.897Z,93.28
2019-01-22T01:27:17.871Z,93.47
2019-01-22T01:28:17.844Z,93.75
2019-01-22T01:29:17.818Z,93.47
2019-01-22T01:30:17.792Z,93.09
2019-01-22T01:31:17.766Z,92.61
2019-01-22T01:32:17.740Z,92.43
2019-01-22T01:33:17.720Z,92.14
2019-01-22T01:34:17.688Z,91.67
2019-01-22T01:35:17.665Z,91.77
2019-01-22T01:36:17.637Z,92.33
2019-01-22T01:37:17.623Z,92.33
2019-01-22T01:38:17.587Z,93.28
2019-01-22T01:39:17.568Z,92.43
2019-01-22T01:40:17.536Z,93.84
2019-01-22T01:41:17.512Z,93.66
2019-01-22T01:42:17.487Z,92.99
2019-01-22T01:43:17.458Z,93.18
2019-01-22T01:44:17.432Z,93.80
2019-01-22T01:45:17.405Z,93.42
2019-01-22T01:46:17.382Z,93.99
2019-01-22T01:47:17.355Z,93.80
2019-01-22T01:48:17.330Z,94.60
2019-01-22T01:49:17.315Z,94.89
2019-01-22T01:50:17.283Z,95.26
2019-01-22T01:51:17.301Z,95.17
2019-01-22T01:52:17.225Z,95.26
2019-01-22T01:53:23.685Z,94.70
2019-01-22T01:54:17.175Z,93.56
2019-01-22T01:55:17.148Z,92.90
2019-01-22T01:56:17.121Z,92.43
2019-01-22T01:57:17.097Z,91.77
2019-01-22T01:58:17.080Z,91.39
2019-01-22T01:59:17.047Z,91.39
2019-01-22T02:00:17.021Z,91.39
2019-01-22T02:01:16.999Z,91.10
2019-01-22T02:02:16.970Z,91.20
2019-01-22T02:03:16.943Z,91.77
2019-01-22T02:04:16.930Z,92.33
2019-01-22T02:05:16.893Z,92.33
2019-01-22T02:06:16.873Z,92.05
2019-01-22T02:07:16.839Z,92.80
2019-01-22T02:08:16.813Z,93.42
2019-01-22T02:09:16.787Z,92.71
2019-01-22T02:10:16.765Z,93.75
2019-01-22T02:11:16.737Z,93.75
2019-01-22T02:12:16.711Z,92.90
2019-01-22T02:13:16.682Z,93.18
2019-01-22T02:14:16.657Z,93.09
2019-01-22T02:15:16.632Z,93.23
2019-01-22T02:16:16.605Z,93.13
2019-01-22T02:17:16.582Z,93.42
2019-01-22T02:18:16.552Z,93.32
2019-01-22T02:19:16.527Z,93.89
2019-01-22T02:20:16.501Z,94.27
2019-01-22T02:21:16.483Z,94.37
2019-01-22T02:22:16.450Z,94.41
2019-01-22T02:23:16.425Z,94.32
2019-01-22T02:24:16.399Z,93.66
2019-01-22T02:25:16.381Z,92.76
2019-01-22T02:26:16.346Z,92.94
2019-01-22T02:27:16.321Z,93.04
2019-01-22T02:28:16.295Z,93.80
2019-01-22T02:29:16.268Z,94.84
2019-01-22T02:30:16.244Z,95.40
2019-01-22T02:31:16.218Z,95.21
2019-01-22T02:32:16.191Z,95.97
2019-01-22T02:33:16.162Z,96.16
2019-01-22T02:34:16.142Z,96.54
2019-01-22T02:35:16.113Z,96.73
2019-01-22T02:36:16.083Z,96.25
2019-01-22T02:37:16.061Z,96.73
2019-01-22T02:38:16.036Z,96.35
2019-01-22T02:39:16.006Z,97.20
2019-01-22T02:40:15.983Z,97.29
2019-01-22T02:41:15.953Z,97.39
2019-01-22T02:42:15.926Z,97.67
2019-01-22T02:43:15.899Z,98.33
2019-01-22T02:44:15.874Z,97.86
2019-01-22T02:45:15.848Z,98.14
2019-01-22T02:46:15.825Z,97.96
2019-01-22T02:47:15.796Z,97.58
2019-01-22T02:48:15.766Z,97.39
2019-01-22T02:49:15.743Z,97.10
2019-01-22T02:50:15.716Z,97.48
2019-01-22T02:51:15.689Z,97.10
2019-01-22T02:52:15.668Z,96.91
2019-01-22T02:53:15.630Z,97.20
2019-01-22T02:54:15.602Z,97.58
2019-01-22T02:55:15.579Z,97.67
2019-01-22T02:56:15.560Z,97.58
2019-01-22T02:57:15.524Z,98.38
2019-01-22T02:58:15.503Z,98.10
2019-01-22T02:59:15.477Z,98.19
2019-01-22T03:00:15.446Z,98.28
2019-01-22T03:01:15.416Z,98.28
2019-01-22T03:02:15.391Z,98.85
2019-01-22T03:03:15.373Z,99.08
2019-01-22T03:04:15.336Z,98.19
2019-01-22T03:05:15.314Z,98.19
2019-01-22T03:06:15.286Z,98.10
2019-01-22T03:07:15.259Z,98.38
2019-01-22T03:08:15.236Z,98.10
2019-01-22T03:09:15.210Z,98.94
2019-01-22T03:10:15.179Z,99.60
2019-01-22T03:11:15.153Z,99.88
2019-01-22T03:12:15.123Z,99.70
2019-01-22T03:13:15.096Z,99.04
2019-01-22T03:14:15.074Z,99.98
2019-01-22T03:15:15.051Z,99.60
2019-01-22T03:16:15.017Z,99.22
2019-01-22T03:17:14.993Z,98.90
2019-01-22T03:18:14.963Z,98.90
2019-01-22T03:19:14.938Z,97.29
2019-01-22T03:20:14.911Z,96.44
2019-01-22T03:21:14.884Z,96.16
2019-01-22T03:22:14.859Z,95.78
2019-01-22T03:23:14.837Z,96.06
2019-01-22T03:24:14.805Z,95.92
2019-01-22T03:25:14.776Z,95.54
2019-01-22T03:26:14.753Z,96.49
2019-01-22T03:27:14.730Z,96.91
2019-01-22T03:28:14.698Z,96.63
2019-01-22T03:29:14.675Z,96.73
2019-01-22T03:30:14.657Z,95.97
2019-01-22T03:31:14.625Z,95.40
2019-01-22T03:32:14.592Z,94.65
2019-01-22T03:33:14.569Z,94.60
2019-01-22T03:34:14.551Z,95.36
2019-01-22T03:35:14.517Z,95.54
2019-01-22T03:36:14.488Z,96.20
2019-01-22T03:37:14.462Z,96.30
2019-01-22T03:38:14.439Z,96.01
2019-01-22T03:39:14.407Z,96.30
2019-01-22T03:40:14.382Z,96.54
2019-01-22T03:41:14.357Z,95.97
2019-01-22T03:42:14.330Z,95.83
2019-01-22T03:43:14.313Z,95.54
2019-01-22T03:44:14.275Z,95.92
2019-01-22T03:45:14.245Z,96.39
2019-01-22T03:46:14.219Z,95.92
2019-01-22T03:47:14.195Z,96.54
2019-01-22T03:48:14.175Z,95.97
2019-01-22T03:49:14.140Z,95.87
2019-01-22T03:50:14.112Z,95.59
2019-01-22T03:51:14.089Z,95.12
2019-01-22T03:52:14.060Z,94.84
2019-01-22T03:53:14.035Z,95.31
2019-01-22T03:54:14.006Z,94.37
2019-01-22T03:55:13.985Z,94.37
2019-01-22T03:56:13.956Z,93.89
2019-01-22T03:57:13.929Z,94.08
2019-01-22T03:58:13.901Z,93.13
2019-01-22T03:59:13.875Z,93.61
2019-01-22T04:00:13.847Z,92.85
2019-01-22T04:01:13.820Z,92.94
2019-01-22T04:02:13.794Z,93.13
2019-01-22T04:03:13.768Z,92.76
2019-01-22T04:04:13.744Z,93.42
2019-01-22T04:05:13.713Z,92.66
2019-01-22T04:06:13.693Z,92.66
2019-01-22T04:07:13.662Z,92.94
2019-01-22T04:08:13.638Z,92.38
2019-01-22T04:09:13.610Z,92.94
2019-01-22T04:10:13.585Z,92.19
2019-01-22T04:11:13.555Z,92.38
2019-01-22T04:12:13.527Z,92.38
2019-01-22T04:13:13.517Z,92.47
2019-01-22T04:14:13.476Z,92.57
2019-01-22T04:15:13.452Z,92.38
2019-01-22T04:16:13.422Z,92.66
2019-01-22T04:17:13.395Z,92.76
2019-01-22T04:18:13.371Z,93.09
2019-01-22T04:19:13.346Z,93.66
2019-01-22T04:20:13.323Z,93.37
2019-01-22T04:21:13.291Z,93.94
2019-01-22T04:22:13.263Z,94.56
2019-01-22T04:23:13.245Z,93.84
2019-01-22T04:24:13.210Z,93.80
2019-01-22T04:25:13.193Z,94.18
2019-01-22T04:26:13.164Z,93.89
2019-01-22T04:27:13.132Z,94.46
2019-01-22T04:28:13.104Z,93.80
2019-01-22T04:29:13.075Z,93.23
2019-01-22T04:30:13.058Z,93.37
2019-01-22T04:31:13.029Z,92.76
2019-01-22T04:32:12.999Z,93.28
2019-01-22T04:33:12.971Z,93.47
2019-01-22T04:34:12.945Z,93.18
2019-01-22T04:35:12.918Z,94.13
2019-01-22T04:36:12.888Z,93.94
2019-01-22T04:37:12.863Z,93.84
2019-01-22T04:38:12.842Z,93.75
2019-01-22T04:39:12.812Z,93.84
2019-01-22T04:40:12.783Z,94.51
2019-01-22T04:41:12.761Z,94.22
2019-01-22T04:42:12.738Z,93.75
2019-01-22T04:43:12.709Z,93.84
2019-01-22T04:44:12.675Z,94.41
2019-01-22T04:45:13.469Z,95.07
2019-01-22T04:46:12.623Z,94.98
2019-01-22T04:47:12.595Z,95.45
2019-01-22T04:48:12.604Z,95.83
2019-01-22T04:49:12.540Z,96.30
2019-01-22T04:50:12.515Z,96.20
2019-01-22T04:51:12.488Z,96.49
2019-01-22T04:52:12.466Z,96.30
2019-01-22T04:53:12.433Z,96.86
2019-01-22T04:54:12.411Z,96.58
2019-01-22T04:55:12.383Z,96.68
2019-01-22T04:56:12.353Z,96.49
2019-01-22T04:57:12.327Z,96.49
2019-01-22T04:58:12.313Z,97.24
2019-01-22T04:59:12.274Z,96.30
2019-01-22T05:00:12.248Z,96.49
2019-01-22T05:01:12.220Z,96.58
2019-01-22T05:02:12.200Z,96.58
2019-01-22T05:03:12.166Z,96.58
2019-01-22T05:04:12.139Z,96.49
2019-01-22T05:05:12.130Z,95.83
2019-01-22T05:06:12.086Z,95.17
2019-01-22T05:07:12.058Z,95.36
2019-01-22T05:08:12.029Z,95.64
2019-01-22T05:09:12.005Z,95.36
2019-01-22T05:10:11.977Z,95.26
2019-01-22T05:11:11.948Z,95.54
2019-01-22T05:12:11.920Z,96.20
2019-01-22T05:13:11.894Z,96.49
2019-01-22T05:14:11.877Z,97.34
2019-01-22T05:15:11.842Z,96.96
2019-01-22T05:16:11.810Z,96.96
2019-01-22T05:17:11.819Z,96.49
2019-01-22T05:18:11.758Z,96.30
2019-01-22T05:19:11.730Z,95.45
2019-01-22T05:20:11.701Z,95.36
2019-01-22T05:21:11.676Z,94.70
2019-01-22T05:22:11.648Z,94.60
2019-01-22T05:23:11.621Z,94.51
2019-01-22T05:24:17.656Z,94.41
2019-01-22T05:25:11.568Z,94.60
2019-01-22T05:26:11.539Z,94.79
2019-01-22T05:27:11.519Z,94.89
2019-01-22T05:28:11.486Z,94.98
2019-01-22T05:29:11.457Z,95.07
2019-01-22T05:30:11.430Z,94.60
2019-01-22T05:31:11.409Z,94.70
2019-01-22T05:32:11.378Z,94.70
2019-01-22T05:33:11.349Z,94.60
2019-01-22T05:34:11.321Z,94.79
2019-01-22T05:35:11.303Z,95.07
2019-01-22T05:36:11.269Z,95.26
2019-01-22T05:37:11.245Z,96.01
2019-01-22T05:38:11.214Z,95.83
2019-01-22T05:39:11.189Z,95.83
2019-01-22T05:40:11.163Z,95.36
2019-01-22T05:41:11.131Z,95.17
2019-01-22T05:42:11.105Z,94.60
2019-01-22T05:43:11.080Z,94.41
2019-01-22T05:44:11.053Z,94.41
2019-01-22T05:45:11.027Z,93.75
2019-01-22T05:46:11.013Z,94.03
2019-01-22T05:47:10.972Z,94.03
2019-01-22T05:48:13.477Z,93.37
2019-01-22T05:49:10.920Z,93.66
2019-01-22T05:50:10.915Z,94.41
2019-01-22T05:51:10.867Z,94.70
2019-01-22T05:52:10.835Z,94.89
2019-01-22T05:53:10.810Z,95.17
2019-01-22T05:54:10.782Z,96.20
2019-01-22T05:55:10.767Z,96.58
2019-01-22T05:56:10.727Z,96.20
2019-01-22T05:57:10.705Z,96.58
2019-01-22T05:58:10.681Z,96.49
2019-01-22T05:59:10.646Z,96.58
2019-01-22T06:00:10.623Z,96.39
2019-01-22T06:01:10.593Z,96.49
2019-01-22T06:02:10.574Z,96.49
2019-01-22T06:03:10.575Z,96.20
2019-01-22T06:04:10.544Z,95.64
2019-01-22T06:05:10.574Z,96.30
2019-01-22T06:06:10.593Z,96.39
2019-01-22T06:07:10.445Z,96.11
2019-01-22T06:08:10.402Z,96.39
2019-01-22T06:09:10.382Z,96.11
2019-01-22T06:10:10.348Z,96.49
2019-01-22T06:11:10.322Z,97.15
2019-01-22T06:12:10.292Z,97.43
2019-01-22T06:13:10.263Z,97.72
2019-01-22T06:14:10.241Z,97.72
2019-01-22T06:15:10.211Z,97.43
2019-01-22T06:16:10.190Z,97.34
2019-01-22T06:17:10.154Z,97.34
2019-01-22T06:18:10.134Z,97.05
2019-01-22T06:19:10.110Z,96.86
2019-01-22T06:20:10.078Z,97.15
2019-01-22T06:21:10.047Z,96.39
2019-01-22T06:22:10.022Z,97.53
2019-01-22T06:23:09.996Z,96.96
2019-01-22T06:24:09.974Z,97.24
2019-01-22T06:25:09.942Z,97.43
2019-01-22T06:26:09.912Z,97.85
2019-01-22T06:27:09.887Z,97.85
2019-01-22T06:28:09.860Z,98.04
2019-01-22T06:29:09.833Z,98.80
2019-01-22T06:30:09.805Z,98.52
2019-01-22T06:31:09.776Z,98.61
2019-01-22T06:32:09.755Z,99.37
2019-01-22T06:33:09.719Z,99.18
2019-01-22T06:34:09.702Z,98.61
2019-01-22T06:35:09.670Z,98.57
2019-01-22T06:36:09.644Z,98.57
2019-01-22T06:37:09.623Z,98.10
2019-01-22T06:38:09.583Z,98.75
2019-01-22T06:39:09.559Z,98.10
2019-01-22T06:40:09.529Z,97.81
2019-01-22T06:41:09.501Z,97.81
2019-01-22T06:42:09.475Z,97.72
2019-01-22T06:43:09.443Z,97.72
2019-01-22T06:44:09.420Z,97.43
2019-01-22T06:45:09.393Z,97.15
2019-01-22T06:46:09.362Z,96.77
2019-01-22T06:47:09.340Z,97.15
2019-01-22T06:48:09.311Z,97.15
2019-01-22T06:49:09.296Z,96.39
2019-01-22T06:50:09.254Z,96.39
2019-01-22T06:51:09.227Z,97.15
2019-01-22T06:52:09.202Z,97.43
2019-01-22T06:53:09.170Z,96.96
2019-01-22T06:54:09.144Z,96.49
2019-01-22T06:55:09.116Z,96.86
2019-01-22T06:56:09.087Z,95.73
2019-01-22T06:57:09.060Z,95.54
2019-01-22T06:58:09.034Z,95.07
2019-01-22T06:59:09.005Z,94.60
2019-01-22T07:00:08.978Z,94.89
2019-01-22T07:01:08.948Z,94.89
2019-01-22T07:02:08.926Z,94.60
2019-01-22T07:03:08.896Z,94.70
2019-01-22T07:04:08.867Z,94.60
2019-01-22T07:05:08.840Z,94.41
2019-01-22T07:06:08.815Z,94.41
2019-01-22T07:07:08.786Z,94.89
2019-01-22T07:08:08.761Z,94.79
2019-01-22T07:09:08.735Z,94.89
2019-01-22T07:10:08.706Z,94.51
2019-01-22T07:11:08.679Z,94.89
2019-01-22T07:12:08.654Z,94.13
2019-01-22T07:13:08.622Z,94.79
2019-01-22T07:14:08.596Z,94.60
2019-01-22T07:15:08.571Z,94.79
2019-01-22T07:16:08.541Z,94.51
2019-01-22T07:17:08.512Z,95.07
2019-01-22T07:18:08.487Z,94.70
2019-01-22T07:19:08.464Z,94.22
2019-01-22T07:20:08.432Z,94.51
2019-01-22T07:21:08.404Z,94.51
2019-01-22T07:22:08.377Z,94.79
2019-01-22T07:23:08.356Z,94.60
2019-01-22T07:24:08.323Z,95.07
2019-01-22T07:25:08.294Z,94.13
2019-01-22T07:26:08.268Z,94.98
2019-01-22T07:27:08.247Z,94.70
2019-01-22T07:28:08.214Z,94.79
2019-01-22T07:29:08.186Z,94.51
2019-01-22T07:30:08.157Z,94.89
2019-01-22T07:31:08.134Z,94.60
2019-01-22T07:32:08.100Z,94.60
2019-01-22T07:33:08.073Z,95.07
2019-01-22T07:34:08.260Z,94.32
2019-01-22T07:35:08.025Z,94.13
2019-01-22T07:36:07.994Z,94.13
2019-01-22T07:37:07.965Z,93.75
2019-01-22T07:38:07.948Z,93.75
2019-01-22T07:39:07.912Z,93.84
2019-01-22T07:40:07.894Z,93.75
2019-01-22T07:41:07.859Z,93.94
2019-01-22T07:42:07.828Z,93.56
2019-01-22T07:43:08.480Z,93.75
2019-01-22T07:44:07.778Z,94.22
2019-01-22T07:45:07.749Z,94.22
2019-01-22T07:46:07.719Z,94.51
2019-01-22T07:47:07.692Z,94.70
2019-01-22T07:48:07.667Z,94.41
2019-01-22T07:49:07.637Z,94.13
2019-01-22T07:50:07.612Z,93.84
2019-01-22T07:51:07.585Z,94.13
2019-01-22T07:52:07.557Z,93.84
2019-01-22T07:53:07.527Z,94.22
2019-01-22T07:54:07.504Z,94.22
2019-01-22T07:55:07.481Z,93.94
2019-01-22T07:56:07.449Z,93.94
2019-01-22T07:57:07.436Z,93.94
2019-01-22T07:58:07.401Z,94.22
2019-01-22T07:59:07.366Z,93.84
2019-01-22T08:00:07.340Z,93.94
2019-01-22T08:01:07.321Z,93.84
2019-01-22T08:02:07.285Z,93.37
2019-01-22T08:03:07.264Z,92.99
2019-01-22T08:04:07.233Z,93.37
2019-01-22T08:05:07.209Z,93.37
2019-01-22T08:06:07.184Z,93.84
2019-01-22T08:07:07.153Z,92.99
2019-01-22T08:08:07.133Z,93.18
2019-01-22T08:09:07.097Z,93.18
2019-01-22T08:10:07.068Z,92.71
2019-01-22T08:11:07.254Z,92.71
2019-01-22T08:12:07.011Z,92.71
2019-01-22T08:13:06.986Z,92.99
2019-01-22T08:14:06.964Z,92.90
2019-01-22T08:15:06.934Z,92.90
2019-01-22T08:16:06.905Z,92.29
2019-01-22T08:17:06.879Z,91.82
2019-01-22T08:18:06.854Z,91.44
2019-01-22T08:19:06.831Z,90.87
2019-01-22T08:20:06.799Z,90.68
2019-01-22T08:21:06.775Z,90.40
2019-01-22T08:22:06.749Z,89.92
2019-01-22T08:23:06.729Z,89.92
2019-01-22T08:24:06.700Z,89.54
2019-01-22T08:25:06.670Z,89.92
2019-01-22T08:26:06.646Z,89.36
2019-01-22T08:27:06.619Z,90.26
2019-01-22T08:28:06.593Z,90.49
2019-01-22T08:29:06.563Z,90.40
2019-01-22T08:30:06.538Z,90.87
2019-01-22T08:31:06.513Z,90.40
2019-01-22T08:32:06.485Z,90.02
2019-01-22T08:33:06.459Z,89.73
2019-01-22T08:34:06.445Z,89.17
2019-01-22T08:35:06.411Z,89.83
2019-01-22T08:36:06.402Z,88.89
2019-01-22T08:37:06.362Z,88.79
2019-01-22T08:38:06.333Z,88.89
2019-01-22T08:39:06.311Z,89.07
2019-01-22T08:40:06.281Z,88.70
2019-01-22T08:41:06.641Z,89.07
2019-01-22T08:42:06.233Z,88.89
2019-01-22T08:43:06.206Z,88.60
2019-01-22T08:44:06.189Z,88.79
2019-01-22T08:45:06.151Z,88.51
2019-01-22T08:46:06.125Z,88.42
2019-01-22T08:47:06.101Z,88.84
2019-01-22T08:48:06.084Z,88.46
2019-01-22T08:49:06.053Z,87.79
2019-01-22T08:50:06.034Z,86.71
2019-01-22T08:51:06.007Z,85.95
2019-01-22T08:52:05.981Z,85.10
2019-01-22T08:53:05.961Z,83.59
2019-01-22T08:54:05.936Z,82.64
2019-01-22T08:55:08.263Z,83.25
2019-01-22T08:56:05.883Z,82.35
2019-01-22T08:57:05.859Z,82.17
2019-01-22T08:58:05.840Z,82.07
2019-01-22T08:59:05.818Z,83.21
2019-01-22T09:00:05.796Z,82.73
2019-01-22T09:01:05.801Z,82.26
2019-01-22T09:02:05.755Z,81.93
2019-01-22T09:03:05.725Z,81.51
2019-01-22T09:04:05.703Z,81.88
2019-01-22T09:05:05.680Z,82.17
2019-01-22T09:06:05.661Z,81.74
2019-01-22T09:07:05.637Z,80.88
2019-01-22T09:08:09.745Z,80.13
2019-01-22T09:09:05.592Z,81.03
2019-01-22T09:10:05.570Z,81.64
2019-01-22T09:11:05.550Z,80.04
2019-01-22T09:12:05.531Z,80.41
2019-01-22T09:13:05.511Z,80.22
2019-01-22T09:14:05.484Z,80.22
2019-01-22T09:15:05.462Z,80.37
2019-01-22T09:16:05.441Z,80.65
2019-01-22T09:17:05.420Z,81.74
2019-01-22T09:18:05.401Z,81.26
2019-01-22T09:19:05.377Z,81.45
2019-01-22T09:20:05.356Z,81.70
2019-01-22T09:21:05.342Z,81.74
2019-01-22T09:22:05.317Z,81.74
2019-01-22T09:23:05.293Z,81.45
2019-01-22T09:24:05.269Z,79.99
2019-01-22T09:25:05.249Z,81.26
2019-01-22T09:26:05.230Z,81.79
2019-01-22T09:27:05.212Z,82.31
2019-01-22T09:28:05.183Z,82.21
2019-01-22T09:29:05.161Z,81.55
2019-01-22T09:30:05.143Z,81.07
2019-01-22T09:31:05.123Z,80.41
2019-01-22T09:32:05.096Z,79.47
2019-01-22T09:33:05.079Z,80.04
2019-01-22T09:34:05.059Z,79.94
2019-01-22T09:35:05.037Z,81.55
2019-01-22T09:36:05.012Z,81.83
2019-01-22T09:37:04.995Z,82.40
2019-01-22T09:38:04.967Z,81.12
2019-01-22T09:39:04.950Z,80.60
2019-01-22T09:40:04.933Z,80.51
2019-01-22T09:41:04.907Z,80.13
2019-01-22T09:42:04.884Z,80.13
2019-01-22T09:43:04.863Z,80.22
2019-01-22T09:44:04.837Z,80.88
2019-01-22T09:45:04.831Z,81.64
2019-01-22T09:46:04.804Z,82.50
2019-01-22T09:47:04.771Z,82.12
2019-01-22T09:48:04.753Z,82.21
2019-01-22T09:49:04.756Z,82.31
2019-01-22T09:50:04.710Z,82.87
2019-01-22T09:51:04.697Z,82.59
2019-01-22T09:52:04.662Z,82.40
2019-01-22T09:53:04.641Z,82.68
2019-01-22T09:54:04.621Z,83.06
2019-01-22T09:55:04.593Z,84.10
2019-01-22T09:56:04.573Z,84.48
2019-01-22T09:57:04.547Z,84.58
2019-01-22T09:58:04.572Z,84.10
2019-01-22T09:59:04.503Z,83.82
2019-01-22T10:00:04.486Z,83.63
2019-01-22T10:01:04.457Z,83.44
2019-01-22T10:02:04.435Z,83.82
2019-01-22T10:03:04.415Z,83.63
2019-01-22T10:04:04.392Z,83.63
2019-01-22T10:05:04.366Z,84.10
2019-01-22T10:06:04.343Z,83.72
2019-01-22T10:07:04.320Z,84.01
2019-01-22T10:08:04.305Z,83.44
2019-01-22T10:09:04.271Z,83.01
2019-01-22T10:10:04.250Z,81.87
2019-01-22T10:11:04.229Z,81.77
2019-01-22T10:12:04.203Z,81.49
2019-01-22T10:13:04.182Z,80.21
2019-01-22T10:14:04.164Z,78.98
2019-01-22T10:15:04.137Z,77.27
2019-01-22T10:16:04.121Z,75.95
2019-01-22T10:17:04.092Z,75.66
2019-01-22T10:18:04.074Z,76.14
2019-01-22T10:19:04.050Z,76.70
2019-01-22T10:20:04.029Z,77.75
2019-01-22T10:21:04.008Z,77.27
2019-01-22T10:22:03.988Z,76.08
2019-01-22T10:23:03.962Z,75.13
2019-01-22T10:24:03.941Z,75.09
2019-01-22T10:25:03.922Z,75.19
2019-01-22T10:26:03.903Z,75.13
2019-01-22T10:27:03.879Z,75.04
2019-01-22T10:28:03.864Z,73.90
2019-01-22T10:29:03.840Z,73.90
2019-01-22T10:30:03.825Z,73.77
2019-01-22T10:31:03.796Z,74.62
2019-01-22T10:32:03.785Z,74.33
2019-01-22T10:33:03.755Z,74.90
2019-01-22T10:34:03.736Z,75.28
2019-01-22T10:35:03.727Z,76.08
2019-01-22T10:36:03.690Z,74.90
2019-01-22T10:37:03.668Z,75.00
2019-01-22T10:38:03.659Z,75.38
2019-01-22T10:39:04.164Z,75.04
2019-01-22T10:40:03.606Z,74.18
2019-01-22T10:41:03.583Z,73.49
2019-01-22T10:42:03.582Z,74.71
2019-01-22T10:43:09.207Z,76.10
2019-01-22T10:44:03.525Z,76.86
2019-01-22T10:45:03.508Z,78.27
2019-01-22T10:46:03.478Z,78.65
2019-01-22T10:47:03.463Z,78.75
2019-01-22T10:48:03.440Z,78.37
2019-01-22T10:49:03.421Z,78.98
2019-01-22T10:50:03.399Z,77.56
2019-01-22T10:51:03.374Z,77.84
2019-01-22T10:52:03.348Z,76.42
2019-01-22T10:53:03.332Z,76.04
2019-01-22T10:54:03.326Z,76.61
2019-01-22T10:55:03.284Z,76.61
2019-01-22T10:56:03.261Z,76.23
2019-01-22T10:57:03.244Z,75.57
2019-01-22T10:58:03.843Z,75.09
2019-01-22T10:59:03.199Z,75.09
2019-01-22T11:00:03.177Z,75.66
2019-01-22T11:01:03.157Z,75.57
2019-01-22T11:02:03.128Z,75.85
2019-01-22T11:03:03.120Z,75.19
2019-01-22T11:04:03.088Z,75.57
2019-01-22T11:05:03.067Z,76.04
2019-01-22T11:06:03.045Z,75.85
2019-01-22T11:07:03.027Z,76.23
2019-01-22T11:08:03.005Z,76.61
2019-01-22T11:09:02.980Z,75.85
2019-01-22T11:10:02.958Z,75.57
2019-01-22T11:11:02.936Z,75.76
2019-01-22T11:12:02.912Z,75.76
2019-01-22T11:13:02.893Z,74.90
2019-01-22T11:14:02.863Z,75.09
2019-01-22T11:15:02.843Z,75.19
2019-01-22T11:16:02.823Z,75.47
2019-01-22T11:17:02.798Z,74.90
2019-01-22T11:18:02.784Z,75.28
2019-01-22T11:19:02.751Z,75.00
2019-01-22T11:20:02.740Z,75.09
2019-01-22T11:21:02.707Z,75.19
2019-01-22T11:22:02.692Z,74.52
2019-01-22T11:23:02.666Z,75.04
2019-01-22T11:24:02.647Z,74.47
2019-01-22T11:25:02.626Z,72.67
2019-01-22T11:26:02.599Z,72.10
2019-01-22T11:27:02.608Z,71.44
2019-01-22T11:28:02.551Z,71.06
2019-01-22T11:29:02.533Z,70.34
2019-01-22T11:30:02.513Z,68.98
2019-01-22T11:31:02.488Z,69.01
2019-01-22T11:32:02.472Z,69.10
2019-01-22T11:33:02.457Z,68.73
2019-01-22T11:34:02.426Z,68.82
2019-01-22T11:35:02.401Z,68.82
2019-01-22T11:36:02.379Z,68.31
2019-01-22T11:37:02.352Z,68.31
2019-01-22T11:38:02.343Z,68.79
2019-01-22T11:39:02.314Z,69.73
2019-01-22T11:40:02.288Z,70.68
2019-01-22T11:41:02.266Z,70.11
2019-01-22T11:42:02.243Z,69.64
2019-01-22T11:43:02.225Z,69.92
2019-01-22T11:44:02.202Z,68.98
2019-01-22T11:45:02.176Z,67.65
2019-01-22T11:46:02.154Z,67.30
2019-01-22T11:47:02.135Z,67.77
2019-01-22T11:48:02.118Z,66.93
2019-01-22T11:49:02.088Z,67.11
2019-01-22T11:50:02.075Z,67.02
2019-01-22T11:51:02.047Z,67.21
2019-01-22T11:52:02.028Z,66.01
2019-01-22T11:53:02.010Z,64.68
2019-01-22T11:54:01.981Z,64.65
2019-01-22T11:55:01.959Z,64.93
2019-01-22T11:56:01.943Z,64.84
2019-01-22T11:57:01.923Z,65.03
2019-01-22T11:58:01.895Z,64.93
2019-01-22T11:59:01.874Z,64.74
2019-01-22T12:00:01.865Z,64.65
2019-01-22T12:01:01.843Z,64.74
2019-01-22T12:02:01.812Z,64.84
2019-01-22T12:03:01.798Z,64.65
2019-01-22T12:04:01.774Z,64.08
2019-01-22T12:05:01.757Z,64.20
2019-01-22T12:06:01.729Z,64.01
2019-01-22T12:07:01.712Z,63.35
2019-01-22T12:08:01.687Z,62.24
2019-01-22T12:09:01.669Z,61.49
2019-01-22T12:10:01.648Z,60.82
2019-01-22T12:11:01.621Z,60.63
2019-01-22T12:12:01.608Z,59.78
2019-01-22T12:13:01.590Z,59.59
2019-01-22T12:14:01.561Z,59.84
2019-01-22T12:15:01.541Z,59.84
2019-01-22T12:16:01.518Z,60.92
2019-01-22T12:17:01.658Z,59.97
2019-01-22T12:18:01.481Z,59.68
2019-01-22T12:19:01.458Z,58.64
2019-01-22T12:20:01.780Z,58.54
2019-01-22T12:21:01.428Z,58.54
2019-01-22T12:22:01.395Z,58.80
2019-01-22T12:23:01.383Z,59.02
2019-01-22T12:24:01.355Z,58.61
2019-01-22T12:25:01.337Z,59.37
2019-01-22T12:26:01.318Z,59.56
2019-01-22T12:27:01.297Z,59.84
2019-01-22T12:28:01.278Z,59.49
2019-01-22T12:29:01.256Z,58.83
2019-01-22T12:30:01.240Z,58.64
2019-01-22T12:31:01.214Z,58.70
2019-01-22T12:32:01.195Z,58.23
2019-01-22T12:33:01.176Z,58.61
2019-01-22T12:34:01.153Z,58.89
2019-01-22T12:35:01.132Z,58.80
2019-01-22T12:36:01.119Z,58.51
2019-01-22T12:37:01.096Z,58.67
2019-01-22T12:38:01.070Z,59.46
2019-01-22T12:39:01.048Z,59.08
2019-01-22T12:40:01.026Z,58.64
2019-01-22T12:41:01.003Z,58.64
2019-01-22T12:42:00.989Z,57.69
2019-01-22T12:43:00.968Z,57.88
2019-01-22T12:44:00.938Z,57.59
2019-01-22T12:45:00.923Z,57.69
2019-01-22T12:46:00.898Z,57.40
2019-01-22T12:47:00.878Z,57.40
2019-01-22T12:48:00.857Z,56.65
2019-01-22T12:49:00.837Z,56.17
2019-01-22T12:50:00.897Z,56.27
2019-01-22T12:51:00.797Z,56.17
2019-01-22T12:52:00.882Z,55.98